Time;durP1;ratioP1;P1;durP2;ratioP2;P2;SDS_P1;SDS_P2;PMS_P1;PMS_P2;Temp;Humidity;BMP_temperature;BMP_pressure;BME280_temperature;BME280_humidity;BME280_pressure;Samples;Min_cycle;Max_cycle;Signal;HPM_P1;HPM_P2
2024/02/04 00:00:14;;;;;;;15.77;10.55;;;11.10;94.90;;;;;;5074184;28;20028;-46
2024/02/04 00:02:40;;;;;;;13.32;9.02;;;11.00;94.90;;;;;;5073937;28;20066;-46
2024/02/04 00:05:06;;;;;;;10.07;8.13;;;11.00;95.00;;;;;;5073787;28;20033;-40
2024/02/04 00:07:31;;;;;;;11.25;7.78;;;11.00;95.00;;;;;;5072680;28;20025;-44
2024/02/04 00:09:57;;;;;;;9.98;7.05;;;10.90;95.10;;;;;;5073745;28;20059;-43
2024/02/04 00:12:23;;;;;;;7.57;6.60;;;11.00;95.20;;;;;;5073894;28;20052;-45
2024/02/04 00:14:51;;;;;;;8.55;6.78;;;10.90;95.20;;;;;;5074035;28;20381;-43
2024/02/04 00:17:17;;;;;;;7.90;7.10;;;10.90;95.20;;;;;;5073728;28;20101;-43
2024/02/04 00:19:43;;;;;;;9.68;7.85;;;10.90;95.30;;;;;;5073852;28;20156;-45
2024/02/04 00:22:08;;;;;;;8.32;7.13;;;10.90;95.30;;;;;;5073708;28;20536;-43
2024/02/04 00:24:34;;;;;;;10.10;7.93;;;10.90;95.40;;;;;;5073676;28;20399;-43
2024/02/04 00:27:00;;;;;;;9.50;7.95;;;10.90;95.50;;;;;;5073580;28;20025;-45
2024/02/04 00:29:25;;;;;;;10.98;8.23;;;10.90;95.50;;;;;;5073255;28;20120;-43
2024/02/04 00:31:51;;;;;;;12.15;8.45;;;10.90;95.60;;;;;;5073528;28;20016;-44
2024/02/04 00:34:16;;;;;;;10.65;8.02;;;10.80;95.60;;;;;;5073356;28;20062;-45
2024/02/04 00:36:42;;;;;;;11.40;8.57;;;10.80;95.60;;;;;;5073700;28;20465;-44
2024/02/04 00:39:08;;;;;;;13.80;7.75;;;10.80;95.60;;;;;;5073345;28;20020;-45
2024/02/04 00:41:34;;;;;;;11.20;7.78;;;10.80;95.60;;;;;;5073514;28;20067;-47
2024/02/04 00:44:00;;;;;;;8.77;7.18;;;10.90;95.70;;;;;;5073237;28;20104;-42
2024/02/04 00:46:26;;;;;;;7.90;6.30;;;10.90;95.80;;;;;;5073208;28;20047;-44
2024/02/04 00:48:52;;;;;;;9.25;6.95;;;10.90;95.70;;;;;;5073536;28;20021;-44
2024/02/04 00:51:19;;;;;;;8.48;7.15;;;10.90;95.80;;;;;;5073115;28;20013;-44
2024/02/04 00:53:45;;;;;;;10.95;7.88;;;10.90;95.80;;;;;;5073131;28;20017;-46
2024/02/04 00:56:11;;;;;;;11.30;8.45;;;10.90;95.80;;;;;;5073030;28;20406;-45
2024/02/04 00:58:37;;;;;;;18.95;11.93;;;10.90;95.80;;;;;;5071733;28;20131;-39
2024/02/04 01:01:03;;;;;;;24.35;13.60;;;10.80;95.90;;;;;;5072885;28;20047;-45
2024/02/04 01:03:31;;;;;;;27.90;16.45;;;10.80;95.90;;;;;;5072802;28;20028;-44
2024/02/04 01:05:56;;;;;;;26.08;15.40;;;10.80;96.00;;;;;;5072786;28;20020;-44
2024/02/04 01:08:22;;;;;;;22.48;14.60;;;10.80;96.00;;;;;;5071506;28;20093;-46
2024/02/04 01:10:48;;;;;;;30.17;15.15;;;10.80;96.00;;;;;;5072914;28;20020;-44
2024/02/04 01:13:14;;;;;;;20.90;13.20;;;10.80;96.00;;;;;;5072849;28;20046;-46
2024/02/04 01:15:40;;;;;;;22.98;12.63;;;10.90;96.00;;;;;;5072178;28;20048;-44
2024/02/04 01:18:05;;;;;;;21.08;12.63;;;10.80;96.00;;;;;;5072477;28;20133;-40
2024/02/04 01:20:31;;;;;;;22.52;12.13;;;10.90;96.10;;;;;;5072771;28;20058;-49
2024/02/04 01:22:56;;;;;;;17.55;11.45;;;10.80;96.10;;;;;;5072548;28;20013;-43
2024/02/04 01:25:22;;;;;;;19.30;11.75;;;10.80;96.10;;;;;;5072806;28;20100;-45
2024/02/04 01:27:48;;;;;;;14.30;11.00;;;10.80;96.10;;;;;;5072700;28;20024;-43
2024/02/04 01:30:13;;;;;;;15.20;10.65;;;10.80;96.10;;;;;;5072598;28;20027;-45
2024/02/04 01:32:39;;;;;;;18.80;10.85;;;10.80;96.10;;;;;;5072412;28;20108;-45
2024/02/04 01:35:05;;;;;;;12.80;10.25;;;10.90;96.10;;;;;;5072214;28;20048;-45
2024/02/04 01:37:30;;;;;;;20.30;10.95;;;10.90;96.10;;;;;;5072476;28;20048;-41
2024/02/04 01:39:56;;;;;;;17.55;10.70;;;10.90;96.10;;;;;;5072034;28;20055;-46
2024/02/04 01:42:21;;;;;;;17.63;10.27;;;10.90;96.10;;;;;;5072075;28;20028;-45
2024/02/04 01:44:47;;;;;;;19.88;11.35;;;10.90;96.10;;;;;;5072114;28;20032;-44
2024/02/04 01:47:13;;;;;;;14.95;10.45;;;10.90;96.10;;;;;;5070740;28;20059;-45
2024/02/04 01:49:39;;;;;;;18.70;10.70;;;10.90;96.10;;;;;;5071704;28;20484;-43
2024/02/04 01:52:05;;;;;;;15.20;10.55;;;10.90;96.10;;;;;;5072067;28;20036;-37
2024/02/04 01:54:32;;;;;;;15.93;10.02;;;10.90;96.10;;;;;;5072054;28;20029;-36
2024/02/04 01:57:01;;;;;;;17.80;10.63;;;11.00;96.10;;;;;;5072373;28;20058;-37
2024/02/04 01:59:30;;;;;;;13.40;8.80;;;11.00;96.10;;;;;;5072565;28;20181;-38
2024/02/04 02:02:01;;;;;;;15.68;10.48;;;10.90;96.00;;;;;;5071839;28;20036;-35
2024/02/04 02:04:27;;;;;;;14.93;9.70;;;11.00;96.00;;;;;;5072470;28;20138;-41
2024/02/04 02:06:54;;;;;;;19.80;10.45;;;11.00;96.00;;;;;;5072556;28;20135;-38
2024/02/04 02:09:20;;;;;;;15.00;8.95;;;11.00;96.00;;;;;;5072296;28;20020;-36
2024/02/04 02:12:10;;;;;;;12.60;8.65;;;11.00;96.00;;;;;;5072253;28;20024;-35
2024/02/04 02:14:39;;;;;;;17.40;9.00;;;11.00;95.90;;;;;;5072516;28;20514;-39
2024/02/04 02:17:17;;;;;;;14.50;8.60;;;11.00;95.90;;;;;;5072716;28;20155;-38
2024/02/04 02:20:05;;;;;;;13.57;8.77;;;11.00;95.90;;;;;;5072342;28;20504;-38
2024/02/04 02:23:01;;;;;;;13.60;9.25;;;11.00;95.90;;;;;;5072417;28;20408;-41
2024/02/04 02:25:27;;;;;;;16.70;8.95;;;11.10;95.90;;;;;;5072359;28;20725;-39
2024/02/04 02:27:53;;;;;;;16.25;8.50;;;11.10;95.90;;;;;;5071936;28;20020;-37
2024/02/04 02:30:19;;;;;;;13.18;8.70;;;11.10;95.80;;;;;;5072026;28;20033;-37
2024/02/04 02:32:46;;;;;;;14.75;8.48;;;11.10;95.80;;;;;;5072375;28;20028;-39
2024/02/04 02:35:16;;;;;;;14.23;8.05;;;11.10;95.80;;;;;;5071857;28;20053;-36
2024/02/04 02:38:11;;;;;;;14.73;8.10;;;11.10;95.80;;;;;;5070688;28;20434;-38
2024/02/04 02:40:42;;;;;;;14.52;7.57;;;11.10;96.00;;;;;;5071886;28;20052;-40
2024/02/04 02:43:11;;;;;;;16.23;9.00;;;11.10;95.70;;;;;;5072110;28;20020;-37
2024/02/04 02:45:41;;;;;;;10.77;7.72;;;11.10;95.70;;;;;;5072177;28;20051;-36
2024/02/04 02:48:08;;;;;;;11.50;7.45;;;11.10;95.70;;;;;;5071572;28;20044;-35
2024/02/04 02:50:38;;;;;;;14.23;8.35;;;11.10;95.60;;;;;;5071707;28;20432;-38
2024/02/04 02:53:04;;;;;;;18.92;8.30;;;11.00;95.60;;;;;;5071558;28;20426;-36
2024/02/04 02:55:29;;;;;;;11.32;7.90;;;11.00;95.50;;;;;;5071580;28;20056;-36
2024/02/04 02:57:55;;;;;;;13.90;7.63;;;11.00;95.50;;;;;;5071596;28;20461;-38
2024/02/04 03:00:21;;;;;;;12.88;7.68;;;10.90;95.50;;;;;;5070083;28;20024;-37
2024/02/04 03:02:46;;;;;;;13.32;7.95;;;11.00;95.50;;;;;;5071698;28;20080;-37
2024/02/04 03:05:13;;;;;;;16.25;7.60;;;10.90;95.40;;;;;;5071843;28;20035;-37
2024/02/04 03:07:38;;;;;;;11.70;7.38;;;10.90;95.40;;;;;;5071871;28;20021;-36
2024/02/04 03:10:04;;;;;;;14.10;7.97;;;10.90;95.40;;;;;;5071708;28;20024;-36
2024/02/04 03:12:30;;;;;;;12.90;7.68;;;10.90;95.40;;;;;;5071809;28;20025;-37
2024/02/04 03:14:55;;;;;;;13.02;8.07;;;10.90;95.40;;;;;;5071714;28;20027;-38
2024/02/04 03:17:22;;;;;;;12.88;8.45;;;10.90;95.40;;;;;;5071635;28;20020;-37
2024/02/04 03:19:48;;;;;;;18.38;9.13;;;10.90;95.40;;;;;;5071758;28;20054;-36
2024/02/04 03:22:14;;;;;;;13.63;8.10;;;10.80;95.40;;;;;;5071857;28;20035;-38
2024/02/04 03:24:40;;;;;;;13.50;8.05;;;10.80;95.40;;;;;;5071729;28;20515;-38
2024/02/04 03:27:06;;;;;;;14.50;7.70;;;10.80;95.40;;;;;;5053737;28;20073;-37
2024/02/04 03:29:31;;;;;;;14.32;8.45;;;10.80;95.40;;;;;;5071549;28;20036;-36
2024/02/04 03:31:57;;;;;;;16.73;8.63;;;10.80;95.30;;;;;;5071639;28;20021;-36
2024/02/04 03:34:22;;;;;;;15.75;8.30;;;10.80;95.60;;;;;;5071454;28;20048;-37
2024/02/04 03:36:48;;;;;;;19.85;9.07;;;10.80;95.30;;;;;;5071469;28;20054;-37
2024/02/04 03:39:14;;;;;;;14.32;8.20;;;10.80;95.20;;;;;;5072465;28;20437;-37
2024/02/04 03:41:39;;;;;;;14.13;8.35;;;10.80;95.30;;;;;;5075327;28;20021;-36
2024/02/04 03:44:05;;;;;;;14.20;8.60;;;10.80;95.30;;;;;;5075447;28;20020;-37
2024/02/04 03:46:31;;;;;;;15.32;8.60;;;10.80;95.30;;;;;;5075244;28;20020;-36
2024/02/04 03:48:57;;;;;;;19.60;10.05;;;10.80;95.30;;;;;;5073535;28;20115;-37
2024/02/04 03:51:22;;;;;;;15.10;9.60;;;10.80;95.50;;;;;;5075296;28;20016;-39
2024/02/04 03:53:50;;;;;;;15.13;9.75;;;10.80;95.20;;;;;;5075241;28;20017;-37
2024/02/04 03:56:15;;;;;;;17.17;9.27;;;10.80;95.10;;;;;;5074988;28;20406;-38
2024/02/04 03:58:41;;;;;;;14.65;9.10;;;10.80;95.00;;;;;;5075090;28;20031;-37
2024/02/04 04:01:10;;;;;;;14.27;8.52;;;10.80;95.00;;;;;;5074952;28;20024;-36
2024/02/04 04:03:38;;;;;;;15.38;8.70;;;10.80;94.90;;;;;;5075235;28;20036;-39
2024/02/04 04:06:04;;;;;;;11.85;8.23;;;10.80;94.70;;;;;;5074766;28;20048;-39
2024/02/04 04:08:29;;;;;;;14.13;7.85;;;10.70;94.60;;;;;;5074458;28;20485;-36
2024/02/04 04:10:55;;;;;;;15.10;8.43;;;10.70;94.60;;;;;;5074670;28;20020;-37
2024/02/04 04:13:21;;;;;;;15.25;7.53;;;10.70;94.50;;;;;;5074749;28;20035;-36
2024/02/04 04:15:46;;;;;;;12.75;6.68;;;10.60;94.50;;;;;;5074722;28;20090;-37
2024/02/04 04:18:12;;;;;;;12.90;7.13;;;10.60;94.50;;;;;;5074465;28;20028;-35
2024/02/04 04:20:38;;;;;;;13.52;7.80;;;10.60;94.50;;;;;;5074723;28;20024;-37
2024/02/04 04:23:04;;;;;;;11.32;7.00;;;10.60;94.50;;;;;;5074365;28;20070;-37
2024/02/04 04:25:29;;;;;;;14.55;7.03;;;10.60;94.40;;;;;;5074731;28;20020;-37
2024/02/04 04:27:57;;;;;;;9.70;6.38;;;10.60;94.40;;;;;;5074270;28;20016;-38
2024/02/04 04:30:23;;;;;;;12.25;6.53;;;10.60;94.40;;;;;;5074233;28;20491;-37
2024/02/04 04:32:48;;;;;;;11.20;6.47;;;10.60;94.40;;;;;;5074148;28;20013;-36
2024/02/04 04:35:14;;;;;;;11.18;6.18;;;10.60;94.40;;;;;;5074076;28;20044;-36
2024/02/04 04:37:39;;;;;;;14.40;7.30;;;10.60;94.40;;;;;;5074401;28;20021;-37
2024/02/04 04:40:05;;;;;;;8.82;5.85;;;10.60;94.40;;;;;;5072552;28;20027;-36
2024/02/04 04:42:31;;;;;;;11.02;6.90;;;10.60;94.40;;;;;;5073921;28;20035;-36
2024/02/04 04:44:57;;;;;;;11.90;7.20;;;10.60;94.40;;;;;;5074208;28;20468;-36
2024/02/04 04:47:22;;;;;;;13.60;7.43;;;10.60;94.40;;;;;;5074168;28;20021;-36
2024/02/04 04:49:48;;;;;;;14.63;8.20;;;10.60;94.40;;;;;;5073455;28;20013;-35
2024/02/04 04:52:14;;;;;;;13.13;7.80;;;10.60;94.40;;;;;;5072890;28;20099;-37
2024/02/04 04:54:39;;;;;;;19.25;8.13;;;10.60;94.40;;;;;;5074110;28;20107;-36
2024/02/04 04:57:05;;;;;;;12.48;7.13;;;10.60;94.40;;;;;;5073707;28;20024;-37
2024/02/04 04:59:31;;;;;;;12.90;7.05;;;10.60;94.50;;;;;;5073675;28;20035;-35
2024/02/04 05:01:56;;;;;;;13.15;7.68;;;10.50;94.50;;;;;;5073554;28;20381;-37
2024/02/04 05:04:25;;;;;;;14.30;6.97;;;10.50;94.40;;;;;;5073935;28;20025;-36
2024/02/04 05:06:51;;;;;;;15.90;7.05;;;10.50;94.50;;;;;;5073386;28;20028;-37
2024/02/04 05:09:17;;;;;;;13.82;7.97;;;10.50;94.50;;;;;;5073342;28;20028;-34
2024/02/04 05:11:43;;;;;;;11.07;7.32;;;10.50;94.50;;;;;;5073673;28;20023;-37
2024/02/04 05:14:08;;;;;;;16.25;8.25;;;10.50;94.50;;;;;;5073453;28;20082;-38
2024/02/04 05:16:36;;;;;;;14.15;7.95;;;10.50;94.60;;;;;;5073531;28;20028;-38
2024/02/04 05:19:02;;;;;;;16.42;8.00;;;10.50;94.60;;;;;;5073538;28;20457;-37
2024/02/04 05:21:27;;;;;;;10.52;6.53;;;10.40;94.50;;;;;;5073332;28;20024;-38
2024/02/04 05:23:53;;;;;;;11.48;7.05;;;10.40;94.50;;;;;;5073569;28;20078;-38
2024/02/04 05:26:19;;;;;;;14.65;7.00;;;10.40;94.50;;;;;;5073087;28;20025;-39
2024/02/04 05:28:44;;;;;;;10.65;7.03;;;10.30;94.60;;;;;;5071552;28;20570;-39
2024/02/04 05:31:10;;;;;;;10.77;6.07;;;10.30;94.60;;;;;;5073327;28;20031;-37
2024/02/04 05:33:35;;;;;;;13.43;6.03;;;10.30;94.60;;;;;;5073336;28;20024;-37
2024/02/04 05:36:01;;;;;;;11.00;6.57;;;10.20;94.50;;;;;;5071404;28;20183;-38
2024/02/04 05:38:26;;;;;;;11.15;6.13;;;10.20;94.50;;;;;;5072796;28;20036;-38
2024/02/04 05:40:52;;;;;;;10.18;6.22;;;10.20;94.60;;;;;;5072782;28;20145;-35
2024/02/04 05:43:18;;;;;;;9.85;5.90;;;10.30;94.60;;;;;;5072898;28;20074;-37
2024/02/04 05:45:43;;;;;;;8.43;5.80;;;10.20;94.50;;;;;;5072931;28;20599;-37
2024/02/04 05:48:10;;;;;;;11.82;6.63;;;10.20;94.50;;;;;;5073186;28;20008;-37
2024/02/04 05:50:35;;;;;;;12.40;6.53;;;10.20;94.50;;;;;;5073022;28;20035;-38
2024/02/04 05:53:02;;;;;;;10.93;6.15;;;10.20;94.60;;;;;;5073359;28;20468;-37
2024/02/04 05:55:28;;;;;;;9.20;5.93;;;10.20;94.60;;;;;;5072630;28;20101;-37
2024/02/04 05:57:54;;;;;;;9.20;5.88;;;10.20;94.60;;;;;;5073066;28;20471;-37
2024/02/04 06:00:19;;;;;;;11.00;5.80;;;10.20;94.60;;;;;;5071340;28;20028;-37
2024/02/04 06:02:45;;;;;;;10.70;6.03;;;10.20;94.60;;;;;;5072386;28;20082;-37
2024/02/04 06:05:14;;;;;;;11.75;6.18;;;10.20;94.60;;;;;;5072505;28;20028;-37
2024/02/04 06:07:42;;;;;;;12.88;6.15;;;10.20;94.60;;;;;;5072559;28;20111;-41
2024/02/04 06:10:10;;;;;;;12.45;6.18;;;10.20;94.60;;;;;;5072305;28;20065;-38
2024/02/04 06:12:37;;;;;;;15.20;6.68;;;10.30;94.60;;;;;;5072685;28;20021;-39
2024/02/04 06:15:04;;;;;;;11.50;6.70;;;10.20;94.60;;;;;;5072813;28;20468;-35
2024/02/04 06:17:29;;;;;;;14.45;6.20;;;10.20;94.60;;;;;;5072345;28;20051;-37
2024/02/04 06:19:56;;;;;;;13.57;7.20;;;10.20;94.50;;;;;;5072233;28;20515;-37
2024/02/04 06:22:22;;;;;;;12.23;6.65;;;10.20;94.50;;;;;;5072530;28;20024;-37
2024/02/04 06:24:48;;;;;;;12.40;7.25;;;10.20;94.50;;;;;;5072405;28;20078;-38
2024/02/04 06:27:14;;;;;;;11.60;6.15;;;10.20;94.40;;;;;;5072621;28;20024;-38
2024/02/04 06:29:39;;;;;;;11.93;6.40;;;10.20;94.40;;;;;;5070939;28;20024;-37
2024/02/04 06:32:06;;;;;;;14.15;6.90;;;10.20;94.50;;;;;;5071108;28;20029;-37
2024/02/04 06:34:31;;;;;;;12.38;7.30;;;10.10;94.40;;;;;;5072318;28;20041;-37
2024/02/04 06:36:57;;;;;;;11.30;6.85;;;10.10;94.50;;;;;;5071038;28;20599;-38
2024/02/04 06:39:22;;;;;;;12.90;6.40;;;10.00;94.60;;;;;;5070979;28;20043;-37
2024/02/04 06:41:48;;;;;;;12.05;7.13;;;10.00;94.60;;;;;;5072265;28;20033;-36
2024/02/04 06:44:13;;;;;;;13.85;6.90;;;10.00;94.70;;;;;;5072276;28;20467;-37
2024/02/04 06:46:39;;;;;;;11.73;6.93;;;10.00;94.70;;;;;;5072174;28;20056;-37
2024/02/04 06:49:05;;;;;;;11.38;6.78;;;10.00;94.80;;;;;;5072294;28;20025;-38
2024/02/04 06:51:30;;;;;;;13.70;7.40;;;10.00;94.80;;;;;;5072007;28;20021;-36
2024/02/04 06:53:56;;;;;;;14.52;9.23;;;10.10;94.80;;;;;;5072328;28;20021;-37
2024/02/04 06:56:21;;;;;;;15.15;8.90;;;10.10;94.80;;;;;;5070909;28;20047;-38
2024/02/04 06:58:47;;;;;;;14.27;9.40;;;10.10;94.90;;;;;;5071903;28;20056;-36
2024/02/04 07:01:13;;;;;;;17.85;10.95;;;10.10;94.90;;;;;;5072001;28;20508;-35
2024/02/04 07:03:38;;;;;;;17.80;11.82;;;10.20;95.20;;;;;;5071930;28;20024;-38
2024/02/04 07:06:04;;;;;;;19.67;11.88;;;10.20;94.90;;;;;;5071934;28;20062;-37
2024/02/04 07:08:30;;;;;;;17.30;12.80;;;10.20;95.00;;;;;;5072061;28;20024;-36
2024/02/04 07:10:55;;;;;;;20.50;13.57;;;10.20;95.00;;;;;;5071869;28;20195;-37
2024/02/04 07:13:21;;;;;;;18.73;13.25;;;10.20;95.30;;;;;;5072184;28;20027;-36
2024/02/04 07:15:47;;;;;;;20.73;13.80;;;10.20;95.10;;;;;;5075725;28;20453;-38
2024/02/04 07:18:13;;;;;;;23.90;13.85;;;10.30;95.10;;;;;;5075515;28;20021;-37
2024/02/04 07:20:38;;;;;;;18.40;12.70;;;10.30;95.10;;;;;;5075569;28;20102;-36
2024/02/04 07:23:04;;;;;;;17.08;13.75;;;10.30;95.20;;;;;;5075814;28;20530;-36
2024/02/04 07:25:30;;;;;;;18.15;12.48;;;10.30;95.20;;;;;;5074319;28;20589;-36
2024/02/04 07:27:57;;;;;;;17.08;12.70;;;10.30;95.20;;;;;;5075850;28;20187;-39
2024/02/04 07:30:22;;;;;;;18.10;12.77;;;10.30;95.20;;;;;;5075644;28;20107;-38
2024/02/04 07:32:48;;;;;;;20.85;13.68;;;10.40;95.20;;;;;;5075430;28;20055;-36
2024/02/04 07:35:14;;;;;;;19.52;13.77;;;10.40;95.20;;;;;;5075259;28;20036;-37
2024/02/04 07:37:39;;;;;;;18.80;12.57;;;10.40;95.20;;;;;;5075381;28;20024;-36
2024/02/04 07:40:06;;;;;;;20.58;14.10;;;10.40;95.20;;;;;;5075324;28;20107;-37
2024/02/04 07:42:32;;;;;;;17.15;12.38;;;10.40;95.20;;;;;;5075383;28;20028;-36
2024/02/04 07:44:59;;;;;;;15.00;12.10;;;10.40;95.20;;;;;;5075414;28;20110;-36
2024/02/04 07:47:24;;;;;;;19.25;13.80;;;10.50;95.20;;;;;;5075165;28;20457;-35
2024/02/04 07:49:50;;;;;;;23.42;13.60;;;10.50;95.20;;;;;;5074945;28;20024;-36
2024/02/04 07:52:16;;;;;;;22.30;13.70;;;10.50;95.20;;;;;;5075180;28;20063;-38
2024/02/04 07:54:43;;;;;;;18.73;12.50;;;10.50;95.20;;;;;;5073851;28;20393;-35
2024/02/04 07:57:10;;;;;;;20.33;12.80;;;10.50;95.30;;;;;;5074970;28;20068;-37
2024/02/04 07:59:35;;;;;;;22.17;12.00;;;10.50;95.30;;;;;;5075012;28;20025;-38
2024/02/04 08:02:01;;;;;;;19.50;11.07;;;10.50;95.20;;;;;;5074768;28;20123;-38
2024/02/04 08:04:27;;;;;;;20.00;10.48;;;10.60;95.20;;;;;;5074853;28;20164;-37
2024/02/04 08:06:54;;;;;;;19.65;10.55;;;10.60;95.20;;;;;;5074567;28;20031;-36
2024/02/04 08:09:19;;;;;;;19.30;9.90;;;10.50;95.20;;;;;;5074394;28;20028;-35
2024/02/04 08:11:46;;;;;;;16.50;10.10;;;10.60;95.20;;;;;;5074845;28;20024;-39
2024/02/04 08:14:13;;;;;;;16.65;8.60;;;10.50;95.20;;;;;;5074772;28;20362;-36
2024/02/04 08:16:39;;;;;;;14.88;8.18;;;10.60;95.20;;;;;;5074510;28;20025;-35
2024/02/04 08:19:06;;;;;;;12.27;8.30;;;10.60;95.10;;;;;;5074516;28;20154;-37
2024/02/04 08:21:32;;;;;;;16.40;7.32;;;10.60;95.00;;;;;;5074738;28;20416;-35
2024/02/04 08:23:58;;;;;;;14.73;6.18;;;10.60;94.70;;;;;;5074684;28;20024;-36
2024/02/04 08:26:24;;;;;;;10.02;5.78;;;10.60;94.60;;;;;;5072882;28;20021;-34
2024/02/04 08:28:50;;;;;;;10.77;6.38;;;10.60;94.50;;;;;;5074581;28;20032;-36
2024/02/04 08:31:16;;;;;;;11.23;6.65;;;10.60;94.50;;;;;;5074288;28;20034;-37
2024/02/04 08:33:41;;;;;;;10.70;6.10;;;10.60;94.50;;;;;;5074428;28;20028;-36
2024/02/04 08:36:10;;;;;;;10.40;5.63;;;10.60;94.40;;;;;;5074188;28;20034;-35
2024/02/04 08:38:36;;;;;;;10.25;6.43;;;10.60;94.40;;;;;;5074229;28;20108;-36
2024/02/04 08:41:02;;;;;;;12.43;6.53;;;10.60;94.40;;;;;;5074525;28;20024;-36
2024/02/04 08:43:28;;;;;;;15.80;6.70;;;10.60;94.40;;;;;;5074059;28;20419;-36
2024/02/04 08:45:53;;;;;;;10.68;6.07;;;10.60;94.40;;;;;;5074085;28;20052;-36
2024/02/04 08:48:19;;;;;;;12.07;5.82;;;10.60;94.40;;;;;;5074028;28;20052;-37
2024/02/04 08:50:44;;;;;;;8.75;5.88;;;10.60;94.50;;;;;;5073998;28;20043;-39
2024/02/04 08:53:10;;;;;;;11.10;6.40;;;10.60;94.50;;;;;;5074055;28;20016;-42
2024/02/04 08:55:35;;;;;;;10.02;6.10;;;10.60;94.50;;;;;;5074102;28;20073;-39
2024/02/04 08:58:01;;;;;;;12.75;6.20;;;10.60;94.50;;;;;;5072572;28;20021;-37
2024/02/04 09:00:27;;;;;;;11.80;6.20;;;10.60;94.50;;;;;;5072301;28;20029;-37
2024/02/04 09:02:52;;;;;;;14.07;6.80;;;10.60;94.50;;;;;;5073745;28;20028;-37
2024/02/04 09:05:18;;;;;;;11.88;6.07;;;10.60;94.50;;;;;;5073576;28;20028;-36
2024/02/04 09:07:44;;;;;;;13.65;5.57;;;10.60;94.50;;;;;;5073835;28;20389;-36
2024/02/04 09:10:09;;;;;;;11.25;5.40;;;10.60;94.50;;;;;;5073414;28;20031;-37
2024/02/04 09:12:35;;;;;;;11.02;4.82;;;10.60;94.50;;;;;;5073629;28;20487;-37
2024/02/04 09:15:01;;;;;;;9.68;5.00;;;10.70;94.50;;;;;;5073243;28;20036;-35
2024/02/04 09:17:26;;;;;;;9.13;5.07;;;10.70;94.50;;;;;;5072950;28;20452;-37
2024/02/04 09:19:52;;;;;;;7.07;4.80;;;10.70;94.50;;;;;;5072895;28;20036;-35
2024/02/04 09:22:17;;;;;;;7.85;4.65;;;10.70;94.50;;;;;;5073167;28;20028;-38
2024/02/04 09:24:43;;;;;;;10.77;5.15;;;10.70;94.50;;;;;;5072737;28;20032;-36
2024/02/04 09:27:08;;;;;;;8.40;4.97;;;10.70;94.50;;;;;;5073062;28;20035;-36
2024/02/04 09:29:35;;;;;;;10.13;5.43;;;10.70;94.50;;;;;;5072883;28;20066;-36
2024/02/04 09:32:00;;;;;;;9.27;5.53;;;10.70;94.50;;;;;;5071567;28;20056;-41
2024/02/04 09:34:26;;;;;;;13.90;6.43;;;10.70;94.50;;;;;;5072641;28;20079;-35
2024/02/04 09:36:53;;;;;;;9.57;6.20;;;10.70;94.50;;;;;;5072365;28;20028;-35
2024/02/04 09:39:19;;;;;;;11.68;6.53;;;10.70;94.60;;;;;;5073048;28;20486;-37
2024/02/04 09:41:44;;;;;;;12.25;7.30;;;10.80;94.60;;;;;;5072780;28;20036;-37
2024/02/04 09:44:11;;;;;;;10.73;7.03;;;10.80;94.60;;;;;;5072747;28;20032;-34
2024/02/04 09:46:37;;;;;;;11.10;6.75;;;10.80;94.60;;;;;;5072713;28;20033;-37
2024/02/04 09:49:03;;;;;;;11.77;6.75;;;10.80;94.60;;;;;;5072644;28;20040;-37
2024/02/04 09:51:29;;;;;;;11.27;7.22;;;10.90;94.60;;;;;;5072731;28;20025;-36
2024/02/04 09:54:02;;;;;;;11.73;6.70;;;10.90;94.60;;;;;;5071390;28;20025;-37
2024/02/04 09:56:30;;;;;;;10.35;6.47;;;10.90;94.60;;;;;;5072920;28;20025;-37
2024/02/04 09:58:56;;;;;;;11.95;6.10;;;10.90;94.60;;;;;;5072669;28;20037;-37
2024/02/04 10:01:23;;;;;;;14.25;6.53;;;10.90;94.60;;;;;;5072564;28;20473;-37
2024/02/04 10:03:48;;;;;;;9.65;5.65;;;11.00;94.60;;;;;;5072744;28;20025;-40
2024/02/04 10:06:14;;;;;;;12.52;5.55;;;11.00;94.60;;;;;;5072803;28;20115;-35
2024/02/04 10:08:40;;;;;;;6.57;4.78;;;11.10;94.60;;;;;;5072854;28;20028;-36
2024/02/04 10:11:05;;;;;;;7.75;4.97;;;11.10;94.60;;;;;;5072775;28;20016;-36
2024/02/04 10:13:43;;;;;;;8.00;4.78;;;11.10;94.50;;;;;;5072889;28;20354;-36
2024/02/04 10:16:09;;;;;;;8.90;4.88;;;11.10;94.50;;;;;;5071367;28;20032;-38
2024/02/04 10:18:34;;;;;;;7.88;4.13;;;11.20;94.50;;;;;;5072372;28;20032;-41
2024/02/04 10:21:00;;;;;;;8.95;4.30;;;11.20;94.50;;;;;;5072341;28;20016;-36
2024/02/04 10:23:27;;;;;;;5.65;4.07;;;11.30;94.40;;;;;;5071154;28;20043;-36
2024/02/04 10:25:59;;;;;;;7.28;3.92;;;11.30;94.40;;;;;;5072365;28;20485;-38
2024/02/04 10:28:25;;;;;;;6.97;3.70;;;11.30;94.30;;;;;;5071076;28;20090;-36
2024/02/04 10:30:52;;;;;;;8.00;4.30;;;11.40;94.30;;;;;;5072384;28;20024;-37
2024/02/04 10:33:17;;;;;;;7.00;3.72;;;11.40;94.20;;;;;;5072530;28;20026;-37
2024/02/04 10:35:43;;;;;;;9.38;4.03;;;11.40;94.20;;;;;;5072146;28;20420;-37
2024/02/04 10:38:10;;;;;;;6.50;3.05;;;11.50;94.20;;;;;;5072421;28;20032;-38
2024/02/04 10:40:35;;;;;;;6.13;2.95;;;11.40;94.10;;;;;;5072423;28;20040;-38
2024/02/04 10:43:05;;;;;;;5.45;3.20;;;11.50;94.10;;;;;;5071018;28;20496;-37
2024/02/04 10:45:34;;;;;;;7.30;3.13;;;11.50;94.10;;;;;;5072367;28;20492;-38
2024/02/04 10:48:02;;;;;;;7.18;3.10;;;11.50;94.10;;;;;;5073019;28;20028;-38
2024/02/04 10:50:30;;;;;;;8.05;3.22;;;11.50;94.00;;;;;;5076175;28;20490;-37
2024/02/04 10:53:00;;;;;;;7.30;2.88;;;11.60;93.90;;;;;;5076345;28;20048;-40
2024/02/04 10:55:30;;;;;;;5.03;2.55;;;11.50;93.80;;;;;;5076155;28;20024;-37
2024/02/04 10:57:56;;;;;;;6.75;2.55;;;11.60;93.70;;;;;;5076084;28;20032;-37
2024/02/04 11:00:22;;;;;;;7.05;2.65;;;11.60;93.70;;;;;;5075945;28;20031;-36
2024/02/04 11:02:51;;;;;;;5.30;2.78;;;11.60;93.60;;;;;;5076062;28;20540;-37
2024/02/04 11:05:17;;;;;;;5.03;2.47;;;11.70;93.60;;;;;;5075971;28;20052;-37
2024/02/04 11:07:43;;;;;;;6.78;1.95;;;11.70;93.60;;;;;;5075989;28;20040;-36
2024/02/04 11:10:10;;;;;;;5.75;1.85;;;11.70;93.50;;;;;;5076023;28;20028;-38
2024/02/04 11:12:38;;;;;;;4.00;1.70;;;11.70;93.30;;;;;;5075707;28;20044;-37
2024/02/04 11:15:06;;;;;;;5.30;2.00;;;11.70;93.30;;;;;;5076071;28;20031;-37
2024/02/04 11:17:50;;;;;;;6.38;1.50;;;11.70;93.10;;;;;;5075932;28;20143;-37
2024/02/04 11:20:33;;;;;;;2.65;1.40;;;11.70;92.90;;;;;;5075810;28;20051;-37
2024/02/04 11:23:28;;;;;;;4.03;1.60;;;11.70;92.90;;;;;;5075649;28;20500;-38
2024/02/04 11:25:57;;;;;;;2.17;1.20;;;11.70;92.80;;;;;;5075619;28;20479;-40
2024/02/04 11:28:25;;;;;;;1.58;1.10;;;11.60;92.90;;;;;;5075650;28;20032;-45
2024/02/04 11:30:51;;;;;;;5.72;1.75;;;11.50;93.20;;;;;;5075729;28;20032;-41
2024/02/04 11:33:21;;;;;;;3.10;1.35;;;11.40;93.40;;;;;;5075495;28;20077;-38
2024/02/04 11:35:57;;;;;;;1.02;0.93;;;11.30;93.60;;;;;;5075344;28;20413;-38
2024/02/04 11:38:33;;;;;;;3.05;1.10;;;11.30;93.80;;;;;;5075616;28;20028;-38
2024/02/04 11:40:58;;;;;;;0.80;0.75;;;11.20;94.00;;;;;;5075113;28;20115;-40
2024/02/04 11:43:25;;;;;;;1.75;1.00;;;11.20;94.10;;;;;;5073851;28;20647;-35
2024/02/04 11:45:53;;;;;;;2.15;1.15;;;11.20;94.30;;;;;;5075503;28;20358;-38
2024/02/04 11:48:20;;;;;;;1.20;0.90;;;11.20;94.40;;;;;;5074167;28;20546;-38
2024/02/04 11:50:52;;;;;;;0.98;0.70;;;11.20;94.40;;;;;;5074609;28;20029;-36
2024/02/04 11:53:18;;;;;;;1.92;0.80;;;11.20;94.50;;;;;;5075494;28;20062;-36
2024/02/04 11:55:45;;;;;;;0.73;0.73;;;11.20;94.50;;;;;;5074879;28;20522;-37
2024/02/04 11:58:11;;;;;;;0.85;0.70;;;11.20;94.60;;;;;;5075166;28;20028;-36
2024/02/04 12:00:37;;;;;;;1.17;0.70;;;11.20;94.60;;;;;;5074488;28;20021;-38
2024/02/04 12:03:05;;;;;;;0.80;0.77;;;11.20;94.70;;;;;;5074672;28;20116;-37
2024/02/04 12:05:35;;;;;;;1.15;1.00;;;11.20;94.70;;;;;;5074730;28;20033;-38
2024/02/04 12:08:06;;;;;;;1.80;1.45;;;11.20;94.70;;;;;;5074810;28;20342;-38
2024/02/04 12:10:33;;;;;;;1.92;1.67;;;11.20;94.80;;;;;;5073166;28;20028;-37
2024/02/04 12:13:09;;;;;;;1.92;1.83;;;11.20;94.80;;;;;;5075121;28;20473;-36
2024/02/04 12:15:38;;;;;;;1.98;1.80;;;11.20;94.90;;;;;;5074643;28;20044;-36
2024/02/04 12:18:08;;;;;;;3.33;2.63;;;11.20;95.00;;;;;;5074684;28;20103;-36
2024/02/04 12:20:34;;;;;;;3.85;2.75;;;11.10;95.10;;;;;;5074495;28;20086;-37
2024/02/04 12:23:03;;;;;;;3.65;2.65;;;11.10;95.10;;;;;;5074489;28;20028;-38
2024/02/04 12:25:30;;;;;;;5.60;3.90;;;11.10;95.20;;;;;;5074538;28;20028;-39
2024/02/04 12:27:59;;;;;;;6.90;3.92;;;11.10;95.30;;;;;;5074267;28;20081;-39
2024/02/04 12:30:24;;;;;;;6.72;4.35;;;11.00;95.30;;;;;;5074449;28;20559;-35
2024/02/04 12:33:00;;;;;;;6.20;4.18;;;11.10;95.40;;;;;;5074217;28;20103;-38
2024/02/04 12:35:30;;;;;;;8.63;4.72;;;11.10;95.40;;;;;;5074236;28;20045;-42